Charles M. Schulz Sonoma County Airport
KSTS : now visible

Airfield :











YOU CAN JOIN US ON...

 
LOGIN :

Register | Disclaimer

   EN    FR    IT 

 









Legend :    VFR   Marginal VFR   IFR   Intensive IFR   Very Intensive IFR
Visi :
Ceiling :
>= 8 km
>= 3000ft
5 to 8 km
1000 to 3000 ft
1500m to 5 km
500 to 1000 ft
800 to 1500m
200 to 500 ft
< 800m
< 200 ft
Symbols :   Thunderstorms  Fog  Heavy snow  Heavy precipitations  Wind > 20 kt






- Airport Elevation : 128 ft


KSTS - Charles M. Schulz Sonoma County

CURRENT METAR :
  • 150653Z AUTO 29005KT 10SM CLR 06/04 A3005 RMK AO2 SLP170 T00610039

EXPIRED METARs :
  • 150553Z AUTO 25006KT 10SM CLR 07/05 A3004 RMK AO2 SLP167 60000 T00670050 10128 20061 52009
  • 150453Z AUTO 00000KT 10SM FEW043 BKN060 07/06 A3003 RMK AO2 SLP164 T00720056

TAF KSTS
Valid from the 15 at 06:00 until the 16 at 06:00 UTC


150521Z 1506/1606 28007KT P6SM VCSH SCT030 BKN050
FM150800 31006KT P6SM FEW020 SCT040
FM151200 32004KT P6SM FEW015
TEMPO 1512/1516 1SM BR BKN005
FM151800 33008KT P6SM FEW040
FM160300 32005KT P6SM FEW030



MET'MAP, your aeronautical weather chart ! - Copyright ORBIFLY December 2007 - Disclaimer

ORBIFLY MET'MAP TEAM :

Programming & Development : Alexandra Zaïnal
Concept & original design : Baudouin d'Aumeries
Assistance for programming : Marc-Olivier Méhu
Technical & hardware support : Manuel Goepfert

Contact : metmap@orbifly.com




SOURCES & CREDITS :

   NOAA       Earth
Advisory